createdAt,value
2022-08-31T00:01:40.756Z,102373.34
2022-08-31T00:04:14.787Z,102366.97
2022-08-31T00:06:49.493Z,102363.72
2022-08-31T00:09:20.440Z,102365.06
2022-08-31T00:11:53.782Z,102367.84
2022-08-31T00:14:20.221Z,102367.38
2022-08-31T00:16:52.819Z,102355.47
2022-08-31T00:19:19.295Z,102356.97
2022-08-31T00:21:45.803Z,102362.66
2022-08-31T00:24:20.767Z,102359.22
2022-08-31T00:26:47.419Z,102364.00
2022-08-31T00:29:20.743Z,102360.25
2022-08-31T00:31:47.286Z,102363.31
2022-08-31T00:34:22.781Z,102354.84
2022-08-31T00:36:49.463Z,102361.25
2022-08-31T00:39:16.145Z,102361.75
2022-08-31T00:41:50.777Z,102367.50
2022-08-31T00:44:17.457Z,102362.59
2022-08-31T00:46:50.771Z,102359.38
2022-08-31T00:49:45.767Z,102364.63
2022-08-31T00:52:28.755Z,102361.72
2022-08-31T00:55:25.718Z,102358.78
2022-08-31T00:58:02.757Z,102355.84
2022-08-31T01:00:30.925Z,102361.06
2022-08-31T01:02:59.824Z,102366.97
2022-08-31T01:05:32.743Z,102362.06
2022-08-31T01:08:01.179Z,102362.38
2022-08-31T01:10:38.759Z,102366.44
2022-08-31T01:13:06.167Z,102364.34
2022-08-31T01:15:33.101Z,102354.56
2022-08-31T01:18:08.759Z,102361.25
2022-08-31T01:21:02.737Z,102365.69
2022-08-31T01:23:34.192Z,102359.97
2022-08-31T01:26:09.739Z,102364.19
2022-08-31T01:28:36.473Z,102358.19
2022-08-31T01:31:35.805Z,102355.75
2022-08-31T01:34:03.334Z,102363.25
2022-08-31T01:36:38.766Z,102364.38
2022-08-31T01:39:07.532Z,102362.75
2022-08-31T01:41:40.713Z,102360.78
2022-08-31T01:44:07.944Z,102360.78
2022-08-31T01:46:40.786Z,102364.69
2022-08-31T01:49:13.754Z,102367.31
2022-08-31T01:51:40.201Z,102362.91
2022-08-31T01:54:13.726Z,102372.06
2022-08-31T01:56:52.738Z,102368.50
2022-08-31T01:59:28.775Z,102370.78
2022-08-31T02:02:02.932Z,102369.63
2022-08-31T02:04:43.751Z,102370.28
2022-08-31T02:07:10.173Z,102370.28
2022-08-31T02:09:42.745Z,102366.22
2022-08-31T02:12:09.129Z,102367.84
2022-08-31T02:14:45.721Z,102373.72
2022-08-31T02:17:12.116Z,102373.56
2022-08-31T02:19:44.754Z,102361.47
2022-08-31T02:22:11.230Z,102362.59
2022-08-31T02:24:43.747Z,102363.28
2022-08-31T02:27:16.720Z,102365.06
2022-08-31T02:29:43.365Z,102367.84
2022-08-31T02:32:20.147Z,102365.22
2022-08-31T02:34:48.466Z,102370.28
2022-08-31T02:37:21.733Z,102368.66
2022-08-31T02:39:49.424Z,102372.56
2022-08-31T02:42:22.857Z,102375.50
2022-08-31T02:44:49.766Z,102377.28
2022-08-31T02:47:16.191Z,102369.94
2022-08-31T02:49:48.729Z,102368.97
2022-08-31T02:52:15.170Z,102370.72
2022-08-31T02:54:48.723Z,102381.81
2022-08-31T02:57:15.558Z,102375.44
2022-08-31T02:59:48.723Z,102376.72
2022-08-31T03:02:15.457Z,102380.66
2022-08-31T03:04:48.720Z,102372.53
2022-08-31T03:07:28.767Z,102372.53
2022-08-31T03:10:02.705Z,102367.63
2022-08-31T03:12:29.096Z,102372.34
2022-08-31T03:15:01.720Z,102368.09
2022-08-31T03:17:34.710Z,102369.38
2022-08-31T03:20:10.741Z,102371.47
2022-08-31T03:22:45.622Z,102374.56
2022-08-31T03:25:12.422Z,102373.59
2022-08-31T03:27:46.735Z,102377.16
2022-08-31T03:30:18.262Z,102383.69
2022-08-31T03:32:45.546Z,102384.34
2022-08-31T03:35:18.715Z,102383.22
2022-08-31T03:37:45.776Z,102377.84
2022-08-31T03:40:19.761Z,102380.31
2022-08-31T03:42:46.195Z,102377.00
2022-08-31T03:45:19.718Z,102377.31
2022-08-31T03:47:46.078Z,102374.88
2022-08-31T03:50:12.535Z,102375.38
2022-08-31T03:52:45.724Z,102375.38
2022-08-31T03:55:13.132Z,102374.69
2022-08-31T03:57:46.737Z,102377.78
2022-08-31T04:00:13.708Z,102378.63
2022-08-31T04:02:48.764Z,102390.00
2022-08-31T04:05:21.946Z,102379.88
2022-08-31T04:07:54.729Z,102388.03
2022-08-31T04:10:22.949Z,102388.66
2022-08-31T04:12:50.540Z,102389.97
2022-08-31T04:15:24.702Z,102394.53
2022-08-31T04:17:54.994Z,102391.94
2022-08-31T04:20:30.723Z,102388.81
2022-08-31T04:22:57.171Z,102393.53
2022-08-31T04:25:23.579Z,102393.84
2022-08-31T04:27:56.705Z,102392.25
2022-08-31T04:30:24.960Z,102392.06
2022-08-31T04:33:00.718Z,102404.09
2022-08-31T04:35:34.715Z,102399.72
2022-08-31T04:38:01.162Z,102401.19
2022-08-31T04:40:34.753Z,102390.91
2022-08-31T04:43:08.712Z,102401.13
2022-08-31T04:45:41.029Z,102396.91
2022-08-31T04:48:08.557Z,102399.00
2022-08-31T04:50:42.902Z,102401.75
2022-08-31T04:53:16.734Z,102404.38
2022-08-31T04:55:43.392Z,102397.69
2022-08-31T04:58:10.799Z,102412.34
2022-08-31T05:00:44.699Z,102403.56
2022-08-31T05:03:11.137Z,102410.84
2022-08-31T05:05:52.710Z,102408.84
2022-08-31T05:08:26.703Z,102405.22
2022-08-31T05:11:00.705Z,102407.50
2022-08-31T05:13:27.092Z,102398.00
2022-08-31T05:16:02.739Z,102402.38
2022-08-31T05:18:29.197Z,102414.34
2022-08-31T05:21:02.886Z,102417.56
2022-08-31T05:23:29.504Z,102418.88
2022-08-31T05:25:55.889Z,102414.47
2022-08-31T05:28:30.701Z,102418.19
2022-08-31T05:30:57.927Z,102413.97
2022-08-31T05:33:30.765Z,102419.72
2022-08-31T05:35:57.194Z,102424.59
2022-08-31T05:38:23.590Z,102420.97
2022-08-31T05:41:00.681Z,102421.53
2022-08-31T05:43:28.584Z,102419.75
2022-08-31T05:46:06.703Z,102413.47
2022-08-31T05:48:37.699Z,102416.94
2022-08-31T05:51:13.678Z,102414.97
2022-08-31T05:53:40.656Z,102416.34
2022-08-31T05:56:19.706Z,102411.88
2022-08-31T05:58:47.326Z,102417.06
2022-08-31T06:01:26.701Z,102411.34
2022-08-31T06:03:54.197Z,102417.88
2022-08-31T06:06:36.688Z,102418.13
2022-08-31T06:09:06.042Z,102417.94
2022-08-31T06:11:40.704Z,102420.00
2022-08-31T06:14:07.082Z,102424.13
2022-08-31T06:16:40.754Z,102425.84
2022-08-31T06:19:15.211Z,102422.28
2022-08-31T06:21:49.896Z,102422.78
2022-08-31T06:24:24.677Z,102423.38
2022-08-31T06:27:02.659Z,102430.00
2022-08-31T06:29:38.882Z,102429.91
2022-08-31T06:32:16.705Z,102427.22
2022-08-31T06:34:43.388Z,102425.25
2022-08-31T06:37:18.744Z,102426.00
2022-08-31T06:39:52.670Z,102424.06
2022-08-31T06:42:19.775Z,102426.03
2022-08-31T06:44:52.685Z,102424.50
2022-08-31T06:47:23.496Z,102431.69
2022-08-31T06:49:58.682Z,102434.13
2022-08-31T06:52:25.376Z,102434.38
2022-08-31T06:54:58.702Z,102433.28
2022-08-31T06:57:25.082Z,102438.78
2022-08-31T06:59:53.607Z,102436.13
2022-08-31T07:02:33.793Z,102435.00
2022-08-31T07:05:07.264Z,102449.50
2022-08-31T07:07:39.719Z,102442.06
2022-08-31T07:10:08.872Z,102445.09
2022-08-31T07:12:35.317Z,102453.00
2022-08-31T07:15:08.725Z,102455.00
2022-08-31T07:17:42.709Z,102450.94
2022-08-31T07:20:09.307Z,102451.19
2022-08-31T07:22:41.767Z,102454.81
2022-08-31T07:25:10.994Z,102453.44
2022-08-31T07:27:37.407Z,102459.72
2022-08-31T07:30:10.738Z,102462.25
2022-08-31T07:32:38.281Z,102462.59
2022-08-31T07:35:12.731Z,102455.47
2022-08-31T07:37:58.221Z,102468.41
2022-08-31T07:40:50.798Z,102464.88
2022-08-31T07:43:17.604Z,102459.28
2022-08-31T07:45:44.403Z,102461.25
2022-08-31T07:48:18.790Z,102454.78
2022-08-31T07:50:54.977Z,102461.84
2022-08-31T07:53:32.744Z,102460.56
2022-08-31T07:56:03.208Z,102459.72
2022-08-31T07:58:50.708Z,102467.78
2022-08-31T08:01:24.981Z,102460.16
2022-08-31T08:04:00.711Z,102472.22
2022-08-31T08:06:34.791Z,102464.97
2022-08-31T08:09:30.082Z,102463.16
2022-08-31T08:12:04.286Z,102464.53
2022-08-31T08:14:38.744Z,102462.75
2022-08-31T08:17:14.738Z,102475.09
2022-08-31T08:19:41.219Z,102475.88
2022-08-31T08:22:07.664Z,102474.50
2022-08-31T08:24:40.856Z,102471.44
2022-08-31T08:27:14.835Z,102472.88
2022-08-31T08:29:48.722Z,102463.16
2022-08-31T08:32:17.550Z,102470.25
2022-08-31T08:34:51.719Z,102474.53
2022-08-31T08:37:18.253Z,102468.06
2022-08-31T08:39:44.990Z,102470.06
2022-08-31T08:42:20.658Z,102466.78
2022-08-31T08:44:53.805Z,102470.38
2022-08-31T08:47:25.468Z,102466.56
2022-08-31T08:50:02.682Z,102468.38
2022-08-31T08:52:31.117Z,102462.69
2022-08-31T08:55:09.699Z,102463.53
2022-08-31T08:57:41.226Z,102470.38
2022-08-31T09:00:20.687Z,102470.03
2022-08-31T09:03:16.011Z,102465.97
2022-08-31T09:06:06.687Z,102456.56
2022-08-31T09:09:06.666Z,102452.44
2022-08-31T09:11:49.535Z,102461.34
2022-08-31T09:14:56.667Z,102456.06
2022-08-31T09:17:50.677Z,102458.31
2022-08-31T09:20:17.655Z,102453.19
2022-08-31T09:23:02.669Z,102457.66
2022-08-31T09:25:35.941Z,102450.22
2022-08-31T09:28:14.682Z,102454.34
2022-08-31T09:30:44.013Z,102451.97
2022-08-31T09:33:34.687Z,102459.53
2022-08-31T09:36:16.580Z,102442.88
2022-08-31T09:38:50.708Z,102451.84
2022-08-31T09:41:29.219Z,102455.41
2022-08-31T09:44:30.681Z,102449.16
2022-08-31T09:47:00.581Z,102450.69
2022-08-31T09:49:39.661Z,102450.91
2022-08-31T09:52:19.825Z,102454.34
2022-08-31T09:55:20.668Z,102449.47
2022-08-31T09:57:53.991Z,102448.66
2022-08-31T10:00:42.663Z,102443.56
2022-08-31T10:03:20.947Z,102442.22
2022-08-31T10:05:56.682Z,102443.41
2022-08-31T10:09:06.647Z,102450.88
2022-08-31T10:11:42.676Z,102441.28
2022-08-31T10:14:28.650Z,102442.00
2022-08-31T10:17:08.655Z,102437.03
2022-08-31T10:19:51.700Z,102442.75
2022-08-31T10:22:50.849Z,102444.34
2022-08-31T10:25:31.673Z,102443.13
2022-08-31T10:28:14.682Z,102433.22
2022-08-31T10:30:45.477Z,102449.38
2022-08-31T10:33:24.668Z,102446.72
2022-08-31T10:35:55.710Z,102441.66
2022-08-31T10:38:40.651Z,102427.66
2022-08-31T10:41:16.025Z,102425.56
2022-08-31T10:44:08.667Z,102422.44
2022-08-31T10:46:35.497Z,102422.47
2022-08-31T10:49:10.656Z,102427.50
2022-08-31T10:52:24.653Z,102424.38
2022-08-31T10:55:11.642Z,102416.38
2022-08-31T10:58:02.660Z,102429.81
2022-08-31T11:00:45.701Z,102441.63
2022-08-31T11:03:52.674Z,102450.44
2022-08-31T11:06:50.660Z,102424.00
2022-08-31T11:09:26.016Z,102437.84
2022-08-31T11:12:14.657Z,102413.75
2022-08-31T11:15:10.698Z,102439.06
2022-08-31T11:17:50.559Z,102424.47
2022-08-31T11:20:36.656Z,102423.28
2022-08-31T11:23:26.872Z,102425.59
2022-08-31T11:26:34.643Z,102420.19
2022-08-31T11:29:16.662Z,102419.94
2022-08-31T11:31:43.523Z,102422.97
2022-08-31T11:34:32.635Z,102417.72
2022-08-31T11:37:10.705Z,102410.53
2022-08-31T11:39:46.673Z,102420.94
2022-08-31T11:42:19.097Z,102411.22
2022-08-31T11:45:06.652Z,102418.72
2022-08-31T11:47:38.698Z,102408.34
2022-08-31T11:50:38.648Z,102407.75
2022-08-31T11:53:31.716Z,102399.75
2022-08-31T11:56:06.849Z,102401.13
2022-08-31T11:58:46.653Z,102405.31
2022-08-31T12:01:25.665Z,102389.69
2022-08-31T12:04:09.645Z,102396.56
2022-08-31T12:06:44.638Z,102404.03
2022-08-31T12:09:24.655Z,102402.63
2022-08-31T12:12:18.652Z,102391.94
2022-08-31T12:15:02.673Z,102383.41
2022-08-31T12:17:56.548Z,102386.63
2022-08-31T12:21:07.845Z,102382.59
2022-08-31T12:24:13.308Z,102380.81
2022-08-31T12:27:14.138Z,102367.94
2022-08-31T12:29:47.659Z,102371.31
2022-08-31T12:32:42.635Z,102363.53
2022-08-31T12:35:18.682Z,102367.47
2022-08-31T12:37:52.649Z,102357.09
2022-08-31T12:40:29.707Z,102360.91
2022-08-31T12:43:20.960Z,102364.13
2022-08-31T12:46:23.719Z,102354.66
2022-08-31T12:49:02.345Z,102357.44
2022-08-31T12:51:48.640Z,102368.06
2022-08-31T12:54:37.164Z,102355.72
2022-08-31T12:57:42.675Z,102360.16
2022-08-31T13:00:17.715Z,102350.72
2022-08-31T13:02:54.699Z,102345.59
2022-08-31T13:05:32.649Z,102347.69
2022-08-31T13:08:10.373Z,102367.91
2022-08-31T13:10:44.680Z,102339.28
2022-08-31T13:13:24.880Z,102331.31
2022-08-31T13:15:58.795Z,102331.81
2022-08-31T13:21:30.847Z,102326.66
2022-08-31T13:24:13.642Z,102330.94
2022-08-31T13:26:40.083Z,102325.50
2022-08-31T13:29:16.655Z,102324.91
2022-08-31T13:31:50.175Z,102323.19
2022-08-31T13:34:24.646Z,102312.06
2022-08-31T13:37:05.099Z,102309.94
2022-08-31T13:39:41.663Z,102306.81
2022-08-31T13:42:21.946Z,102311.00
2022-08-31T13:45:02.668Z,102307.19
2022-08-31T13:47:34.817Z,102308.59
2022-08-31T13:50:27.639Z,102313.50
2022-08-31T13:55:53.077Z,102302.13
2022-08-31T13:58:37.654Z,102298.94
2022-08-31T14:01:31.926Z,102306.88
2022-08-31T14:04:06.639Z,102296.25
2022-08-31T14:06:42.001Z,102302.06
2022-08-31T14:09:21.659Z,102300.13
2022-08-31T14:12:03.019Z,102300.94
2022-08-31T14:14:46.627Z,102296.94
2022-08-31T14:17:16.473Z,102299.44
2022-08-31T14:19:50.660Z,102307.09
2022-08-31T14:22:33.002Z,102294.28
2022-08-31T14:25:08.645Z,102290.41
2022-08-31T14:27:41.511Z,102290.00
2022-08-31T14:30:16.623Z,102279.69
2022-08-31T14:32:45.749Z,102283.41
2022-08-31T14:35:18.667Z,102290.00
2022-08-31T14:37:45.699Z,102285.56
2022-08-31T14:40:13.932Z,102284.78
2022-08-31T14:42:48.622Z,102294.31
2022-08-31T14:45:20.409Z,102280.34
2022-08-31T14:47:58.641Z,102277.75
2022-08-31T14:50:26.979Z,102280.22
2022-08-31T14:53:01.679Z,102284.59
2022-08-31T14:55:29.928Z,102273.03
2022-08-31T14:58:08.656Z,102272.84
2022-08-31T15:00:41.585Z,102277.22
2022-08-31T15:03:14.694Z,102278.84
2022-08-31T15:05:51.995Z,102274.69
2022-08-31T15:08:20.312Z,102272.69
2022-08-31T15:11:00.640Z,102271.16
2022-08-31T15:13:40.638Z,102268.84
2022-08-31T15:16:16.691Z,102266.34
2022-08-31T15:18:43.686Z,102266.34
2022-08-31T15:21:18.634Z,102269.56
2022-08-31T15:23:48.225Z,102258.84
2022-08-31T15:26:22.650Z,102263.84
2022-08-31T15:28:52.448Z,102261.50
2022-08-31T15:31:33.688Z,102260.91
2022-08-31T15:34:00.429Z,102259.47
2022-08-31T15:36:27.695Z,102263.00
2022-08-31T15:39:03.671Z,102260.00
2022-08-31T15:41:30.131Z,102260.25
2022-08-31T15:44:03.645Z,102261.44
2022-08-31T15:46:48.620Z,102260.72
2022-08-31T15:49:21.644Z,102260.38
2022-08-31T15:51:51.331Z,102266.63
2022-08-31T15:54:25.619Z,102255.19
2022-08-31T15:56:53.159Z,102255.09
2022-08-31T15:59:29.627Z,102253.47
2022-08-31T16:02:02.695Z,102250.22
2022-08-31T16:04:52.855Z,102252.03
2022-08-31T16:07:23.051Z,102251.56
2022-08-31T16:09:49.481Z,102248.25
2022-08-31T16:12:24.639Z,102248.81
2022-08-31T16:14:51.704Z,102254.81
2022-08-31T16:17:26.627Z,102256.06
2022-08-31T16:19:53.123Z,102253.69
2022-08-31T16:22:30.728Z,102246.09
2022-08-31T16:24:57.335Z,102248.06
2022-08-31T16:27:30.613Z,102235.88
2022-08-31T16:30:03.621Z,102238.50
2022-08-31T16:32:30.333Z,102221.78
2022-08-31T16:35:03.626Z,102236.44
2022-08-31T16:37:30.015Z,102243.59
2022-08-31T16:40:02.651Z,102237.16
2022-08-31T16:42:36.630Z,102236.66
2022-08-31T16:45:03.765Z,102235.28
2022-08-31T16:47:36.639Z,102237.94
2022-08-31T16:50:08.651Z,102230.78
2022-08-31T16:52:42.821Z,102241.63
2022-08-31T16:55:12.131Z,102235.75
2022-08-31T16:57:46.672Z,102248.03
2022-08-31T17:00:13.302Z,102242.69
2022-08-31T17:02:46.617Z,102244.81
2022-08-31T17:05:26.641Z,102251.69
2022-08-31T17:08:00.663Z,102249.00
2022-08-31T17:10:28.258Z,102253.16
2022-08-31T17:13:01.616Z,102244.59
2022-08-31T17:15:28.374Z,102252.84
2022-08-31T17:18:05.611Z,102252.94
2022-08-31T17:20:32.257Z,102249.50
2022-08-31T17:23:05.617Z,102254.44
2022-08-31T17:25:37.029Z,102247.38
2022-08-31T17:28:12.644Z,102259.06
2022-08-31T17:30:40.391Z,102254.41
2022-08-31T17:33:12.501Z,102253.31
2022-08-31T17:35:48.648Z,102261.06
2022-08-31T17:38:15.043Z,102256.91
2022-08-31T17:40:48.711Z,102251.28
2022-08-31T17:43:15.443Z,102254.44
2022-08-31T17:45:48.796Z,102256.63
2022-08-31T17:48:16.243Z,102263.03
2022-08-31T17:50:50.660Z,102265.13
2022-08-31T17:53:24.634Z,102260.88
2022-08-31T17:55:55.777Z,102264.34
2022-08-31T17:58:28.599Z,102265.03
2022-08-31T18:01:02.674Z,102265.72
2022-08-31T18:03:29.416Z,102262.31
2022-08-31T18:05:55.854Z,102266.66
2022-08-31T18:08:30.614Z,102270.78
2022-08-31T18:11:03.656Z,102268.56
2022-08-31T18:13:30.074Z,102274.91
2022-08-31T18:15:56.517Z,102276.75
2022-08-31T18:18:30.639Z,102278.00
2022-08-31T18:20:58.997Z,102282.91
2022-08-31T18:23:25.444Z,102285.16
2022-08-31T18:25:58.629Z,102283.56
2022-08-31T18:28:32.616Z,102288.22
2022-08-31T18:30:59.099Z,102296.75
2022-08-31T18:33:26.258Z,102294.31
2022-08-31T18:36:00.618Z,102300.38
2022-08-31T18:38:29.598Z,102302.59
2022-08-31T18:41:22.616Z,102297.31
2022-08-31T18:44:07.386Z,102299.16
2022-08-31T18:46:40.897Z,102305.03
2022-08-31T18:49:12.236Z,102315.13
2022-08-31T18:51:48.611Z,102312.47
2022-08-31T18:54:15.836Z,102315.94
2022-08-31T18:56:48.642Z,102321.00
2022-08-31T18:59:17.134Z,102317.91
2022-08-31T19:01:50.720Z,102314.03
2022-08-31T19:04:21.709Z,102318.41
2022-08-31T19:07:02.606Z,102309.84
2022-08-31T19:09:29.091Z,102316.13
2022-08-31T19:12:08.636Z,102314.25
2022-08-31T19:14:37.288Z,102320.09
2022-08-31T19:17:05.608Z,102327.75
2022-08-31T19:19:38.621Z,102331.34
2022-08-31T19:22:12.604Z,102332.09
2022-08-31T19:24:46.615Z,102330.28
2022-08-31T19:27:14.018Z,102336.06
2022-08-31T19:29:50.602Z,102335.78
2022-08-31T19:32:23.612Z,102340.34
2022-08-31T19:34:55.897Z,102338.22
2022-08-31T19:37:28.686Z,102338.97
2022-08-31T19:40:01.734Z,102333.72
2022-08-31T19:45:25.041Z,102344.97
2022-08-31T19:48:17.246Z,102338.09
2022-08-31T19:50:43.852Z,102347.91
2022-08-31T19:53:14.084Z,102345.31
2022-08-31T19:55:55.626Z,102352.41
2022-08-31T19:58:32.694Z,102354.16
2022-08-31T20:01:01.080Z,102350.09
2022-08-31T20:03:37.644Z,102364.09
2022-08-31T20:06:16.669Z,102359.03
2022-08-31T20:08:50.801Z,102370.25
2022-08-31T20:11:22.078Z,102366.97
2022-08-31T20:13:49.396Z,102371.16
2022-08-31T20:16:33.184Z,102371.47
2022-08-31T20:19:08.616Z,102371.28
2022-08-31T20:21:35.734Z,102366.84
2022-08-31T20:24:06.203Z,102364.56
2022-08-31T20:26:47.370Z,102368.94
2022-08-31T20:29:20.373Z,102370.31
2022-08-31T20:31:56.692Z,102366.69
2022-08-31T20:34:27.884Z,102371.25
2022-08-31T20:37:02.602Z,102366.88
2022-08-31T20:39:31.368Z,102374.94
2022-08-31T20:41:59.235Z,102375.03
2022-08-31T20:44:41.606Z,102375.63
2022-08-31T20:47:36.603Z,102376.88
2022-08-31T20:50:07.142Z,102374.72
2022-08-31T20:52:44.609Z,102378.47
2022-08-31T20:55:19.589Z,102376.91
2022-08-31T20:57:54.592Z,102389.41
2022-08-31T21:00:21.125Z,102375.00
2022-08-31T21:02:49.749Z,102375.00
2022-08-31T21:05:38.021Z,102373.94
2022-08-31T21:11:48.594Z,102370.84
2022-08-31T21:14:24.599Z,102374.56
2022-08-31T21:16:50.981Z,102377.72
2022-08-31T21:19:28.581Z,102374.50
2022-08-31T21:22:11.592Z,102378.81
2022-08-31T21:24:41.780Z,102376.41
2022-08-31T21:27:19.595Z,102373.06
2022-08-31T21:29:47.025Z,102380.47
2022-08-31T21:32:22.597Z,102379.00
2022-08-31T21:34:49.127Z,102379.63
2022-08-31T21:37:22.602Z,102379.75
2022-08-31T21:39:49.016Z,102375.59
2022-08-31T21:42:15.484Z,102380.34
2022-08-31T21:44:55.593Z,102379.88
2022-08-31T21:47:28.608Z,102379.16
2022-08-31T21:49:55.053Z,102381.50
2022-08-31T21:52:22.416Z,102376.31
2022-08-31T21:54:56.602Z,102376.84
2022-08-31T21:57:30.613Z,102379.88
2022-08-31T21:59:59.934Z,102369.34
2022-08-31T22:02:26.582Z,102373.63
2022-08-31T22:05:00.574Z,102374.97
2022-08-31T22:07:34.633Z,102372.19
2022-08-31T22:10:09.600Z,102375.03
2022-08-31T22:12:35.980Z,102379.16
2022-08-31T22:15:12.592Z,102386.19
2022-08-31T22:18:02.015Z,102381.81
2022-08-31T22:20:34.583Z,102372.22
2022-08-31T22:23:07.606Z,102378.63
2022-08-31T22:25:36.430Z,102378.44
2022-08-31T22:28:12.618Z,102375.53
2022-08-31T22:30:39.033Z,102372.09
2022-08-31T22:33:12.572Z,102377.50
2022-08-31T22:35:46.559Z,102378.19
2022-08-31T22:38:14.841Z,102382.09
2022-08-31T22:40:48.610Z,102386.06
2022-08-31T22:43:15.513Z,102383.78
2022-08-31T22:45:54.608Z,102386.72
2022-08-31T22:48:28.584Z,102382.50
2022-08-31T22:50:55.150Z,102375.84
2022-08-31T22:53:27.585Z,102376.19
2022-08-31T22:55:54.152Z,102373.25
2022-08-31T22:58:20.638Z,102381.75
2022-08-31T23:00:54.577Z,102380.78
2022-08-31T23:03:28.577Z,102382.09
2022-08-31T23:06:01.925Z,102380.63
2022-08-31T23:08:36.564Z,102376.88
2022-08-31T23:11:03.450Z,102379.50
2022-08-31T23:13:58.586Z,102369.75
2022-08-31T23:16:34.562Z,102369.06
2022-08-31T23:19:10.574Z,102366.63
2022-08-31T23:21:43.048Z,102364.03
2022-08-31T23:24:18.553Z,102370.25
2022-08-31T23:26:47.772Z,102363.38
2022-08-31T23:29:17.994Z,102360.75
2022-08-31T23:31:54.572Z,102359.13
2022-08-31T23:34:22.514Z,102350.66
2022-08-31T23:36:49.783Z,102353.59
2022-08-31T23:39:25.584Z,102354.25
2022-08-31T23:41:53.162Z,102345.47
2022-08-31T23:44:27.578Z,102352.66
2022-08-31T23:46:54.296Z,102344.84
2022-08-31T23:49:28.572Z,102344.50
2022-08-31T23:51:54.972Z,102340.44
2022-08-31T23:54:23.219Z,102330.00
2022-08-31T23:56:56.574Z,102335.69
2022-08-31T23:59:23.981Z,102339.75
